sensor_id;sensor_type;location;lat;lon;timestamp;pressure;altitude;pressure_sealevel;temperature;humidity
59063;BME280;44851;45.648;9.004;2023-04-08T00:01:50;98982.22;;;8.40;55.86
59063;BME280;44851;45.648;9.004;2023-04-08T00:04:16;98989.88;;;8.42;56.18
59063;BME280;44851;45.648;9.004;2023-04-08T00:06:41;98993.94;;;8.35;55.93
59063;BME280;44851;45.648;9.004;2023-04-08T00:09:07;98994.91;;;8.34;56.65
59063;BME280;44851;45.648;9.004;2023-04-08T00:11:32;98989.25;;;8.29;56.17
59063;BME280;44851;45.648;9.004;2023-04-08T00:13:59;98990.44;;;8.24;57.03
59063;BME280;44851;45.648;9.004;2023-04-08T00:16:24;98986.44;;;8.20;56.96
59063;BME280;44851;45.648;9.004;2023-04-08T00:18:50;98990.50;;;8.13;57.10
59063;BME280;44851;45.648;9.004;2023-04-08T00:21:16;98986.50;;;8.09;57.36
59063;BME280;44851;45.648;9.004;2023-04-08T00:23:44;98985.25;;;8.24;56.78
59063;BME280;44851;45.648;9.004;2023-04-08T00:26:10;98980.06;;;8.24;56.74
59063;BME280;44851;45.648;9.004;2023-04-08T00:28:36;98982.78;;;8.23;57.04
59063;BME280;44851;45.648;9.004;2023-04-08T00:31:02;98977.00;;;8.19;56.87
59063;BME280;44851;45.648;9.004;2023-04-08T00:33:27;98973.63;;;8.08;56.80
59063;BME280;44851;45.648;9.004;2023-04-08T00:35:53;98972.59;;;8.10;56.63
59063;BME280;44851;45.648;9.004;2023-04-08T00:38:18;98979.19;;;8.03;57.28
59063;BME280;44851;45.648;9.004;2023-04-08T00:40:43;98975.47;;;7.96;56.93
59063;BME280;44851;45.648;9.004;2023-04-08T00:43:09;98978.75;;;7.98;57.00
59063;BME280;44851;45.648;9.004;2023-04-08T00:45:35;98972.88;;;7.96;57.06
59063;BME280;44851;45.648;9.004;2023-04-08T00:48:02;98976.28;;;7.96;57.12
59063;BME280;44851;45.648;9.004;2023-04-08T00:50:27;98965.91;;;7.96;56.73
59063;BME280;44851;45.648;9.004;2023-04-08T00:52:53;98966.50;;;8.00;57.16
59063;BME280;44851;45.648;9.004;2023-04-08T00:55:18;98970.13;;;7.97;56.91
59063;BME280;44851;45.648;9.004;2023-04-08T00:57:44;98966.13;;;8.05;57.47
59063;BME280;44851;45.648;9.004;2023-04-08T01:00:20;98965.22;;;7.94;57.21
59063;BME280;44851;45.648;9.004;2023-04-08T01:03:04;98968.41;;;7.87;55.78
59063;BME280;44851;45.648;9.004;2023-04-08T01:08:06;98973.56;;;7.98;57.35
59063;BME280;44851;45.648;9.004;2023-04-08T01:10:34;98971.91;;;7.97;57.94
59063;BME280;44851;45.648;9.004;2023-04-08T01:13:07;98978.56;;;7.90;57.37
59063;BME280;44851;45.648;9.004;2023-04-08T01:15:35;98975.13;;;7.89;57.34
59063;BME280;44851;45.648;9.004;2023-04-08T01:18:06;98965.56;;;7.90;58.31
59063;BME280;44851;45.648;9.004;2023-04-08T01:20:32;98973.81;;;7.95;57.61
59063;BME280;44851;45.648;9.004;2023-04-08T01:25:50;98973.56;;;7.98;57.89
59063;BME280;44851;45.648;9.004;2023-04-08T01:28:17;98977.38;;;7.94;57.33
59063;BME280;44851;45.648;9.004;2023-04-08T01:30:44;98974.28;;;8.00;58.21
59063;BME280;44851;45.648;9.004;2023-04-08T01:33:13;98970.28;;;7.96;57.67
59063;BME280;44851;45.648;9.004;2023-04-08T01:35:39;98964.44;;;8.04;57.56
59063;BME280;44851;45.648;9.004;2023-04-08T01:38:08;98967.44;;;7.88;57.06
59063;BME280;44851;45.648;9.004;2023-04-08T01:40:34;98968.31;;;7.66;57.87
59063;BME280;44851;45.648;9.004;2023-04-08T01:43:07;98975.53;;;7.73;57.00
59063;BME280;44851;45.648;9.004;2023-04-08T01:45:32;98975.72;;;7.70;57.58
59063;BME280;44851;45.648;9.004;2023-04-08T01:47:59;98972.19;;;7.71;58.16
59063;BME280;44851;45.648;9.004;2023-04-08T01:50:26;98975.06;;;7.57;57.81
59063;BME280;44851;45.648;9.004;2023-04-08T01:52:53;98970.69;;;7.58;58.67
59063;BME280;44851;45.648;9.004;2023-04-08T01:55:20;98969.38;;;7.63;58.45
59063;BME280;44851;45.648;9.004;2023-04-08T01:57:51;98972.94;;;7.62;58.27
59063;BME280;44851;45.648;9.004;2023-04-08T02:00:20;98974.69;;;7.51;58.01
59063;BME280;44851;45.648;9.004;2023-04-08T02:02:47;98967.19;;;7.47;58.50
59063;BME280;44851;45.648;9.004;2023-04-08T02:05:15;98969.41;;;7.52;58.41
59063;BME280;44851;45.648;9.004;2023-04-08T02:07:41;98971.19;;;7.40;58.33
59063;BME280;44851;45.648;9.004;2023-04-08T02:10:12;98971.78;;;7.33;58.30
59063;BME280;44851;45.648;9.004;2023-04-08T02:12:40;98967.44;;;7.33;58.36
59063;BME280;44851;45.648;9.004;2023-04-08T02:15:07;98970.00;;;7.44;58.43
59063;BME280;44851;45.648;9.004;2023-04-08T02:17:58;98961.88;;;7.38;56.99
59063;BME280;44851;45.648;9.004;2023-04-08T02:20:46;98960.13;;;7.38;57.08
59063;BME280;44851;45.648;9.004;2023-04-08T02:23:23;98961.19;;;7.36;57.90
59063;BME280;44851;45.648;9.004;2023-04-08T02:25:52;98968.94;;;7.47;58.81
59063;BME280;44851;45.648;9.004;2023-04-08T02:28:41;98977.22;;;7.41;59.17
59063;BME280;44851;45.648;9.004;2023-04-08T02:31:10;98974.22;;;7.45;59.58
59063;BME280;44851;45.648;9.004;2023-04-08T02:33:39;98972.22;;;7.49;59.30
59063;BME280;44851;45.648;9.004;2023-04-08T02:36:05;98976.59;;;7.48;58.50
59063;BME280;44851;45.648;9.004;2023-04-08T02:38:31;98969.44;;;7.41;57.91
59063;BME280;44851;45.648;9.004;2023-04-08T02:40:57;98973.56;;;7.32;57.17
59063;BME280;44851;45.648;9.004;2023-04-08T02:43:23;98968.03;;;7.14;57.37
59063;BME280;44851;45.648;9.004;2023-04-08T02:45:57;98966.63;;;7.21;58.22
59063;BME280;44851;45.648;9.004;2023-04-08T02:48:23;98965.41;;;7.03;56.96
59063;BME280;44851;45.648;9.004;2023-04-08T02:50:49;98971.34;;;6.94;56.88
59063;BME280;44851;45.648;9.004;2023-04-08T02:53:14;98971.31;;;6.72;57.02
59063;BME280;44851;45.648;9.004;2023-04-08T02:55:40;98973.53;;;6.87;57.94
59063;BME280;44851;45.648;9.004;2023-04-08T02:58:05;98966.38;;;6.91;57.74
59063;BME280;44851;45.648;9.004;2023-04-08T03:00:31;98975.56;;;6.84;56.36
59063;BME280;44851;45.648;9.004;2023-04-08T03:02:56;98972.69;;;6.64;57.59
59063;BME280;44851;45.648;9.004;2023-04-08T03:05:22;98981.13;;;6.55;58.36
59063;BME280;44851;45.648;9.004;2023-04-08T03:07:47;98976.72;;;6.68;58.32
59063;BME280;44851;45.648;9.004;2023-04-08T03:10:13;98973.44;;;6.66;57.62
59063;BME280;44851;45.648;9.004;2023-04-08T03:12:38;98972.00;;;6.74;57.90
59063;BME280;44851;45.648;9.004;2023-04-08T03:15:04;98970.84;;;6.66;57.98
59063;BME280;44851;45.648;9.004;2023-04-08T03:17:30;98967.03;;;6.59;58.24
59063;BME280;44851;45.648;9.004;2023-04-08T03:19:58;98966.47;;;6.56;58.75
59063;BME280;44851;45.648;9.004;2023-04-08T03:22:24;98969.13;;;6.54;58.67
59063;BME280;44851;45.648;9.004;2023-04-08T03:24:49;98978.56;;;6.55;58.40
59063;BME280;44851;45.648;9.004;2023-04-08T03:27:15;98975.44;;;6.39;59.00
59063;BME280;44851;45.648;9.004;2023-04-08T03:29:43;98973.81;;;6.38;58.61
59063;BME280;44851;45.648;9.004;2023-04-08T03:32:10;98978.63;;;6.31;58.33
59063;BME280;44851;45.648;9.004;2023-04-08T03:34:36;98981.78;;;6.24;58.88
59063;BME280;44851;45.648;9.004;2023-04-08T03:37:01;98980.72;;;6.26;59.41
59063;BME280;44851;45.648;9.004;2023-04-08T03:39:27;98983.44;;;6.25;59.19
59063;BME280;44851;45.648;9.004;2023-04-08T03:41:52;98979.06;;;6.25;58.84
59063;BME280;44851;45.648;9.004;2023-04-08T03:44:19;98989.78;;;6.32;58.52
59063;BME280;44851;45.648;9.004;2023-04-08T03:46:44;98986.50;;;6.30;58.92
59063;BME280;44851;45.648;9.004;2023-04-08T03:49:10;98981.34;;;6.30;59.35
59063;BME280;44851;45.648;9.004;2023-04-08T03:51:35;98981.34;;;6.30;58.97
59063;BME280;44851;45.648;9.004;2023-04-08T03:54:00;98980.06;;;6.35;59.29
59063;BME280;44851;45.648;9.004;2023-04-08T03:56:26;98982.72;;;6.34;58.72
59063;BME280;44851;45.648;9.004;2023-04-08T03:58:51;98981.22;;;6.31;59.12
59063;BME280;44851;45.648;9.004;2023-04-08T04:01:17;98978.50;;;6.33;59.28
59063;BME280;44851;45.648;9.004;2023-04-08T04:03:45;98986.06;;;6.36;58.91
59063;BME280;44851;45.648;9.004;2023-04-08T04:06:10;98985.06;;;6.26;58.32
59063;BME280;44851;45.648;9.004;2023-04-08T04:08:36;98979.38;;;6.09;59.05
59063;BME280;44851;45.648;9.004;2023-04-08T04:11:01;98978.44;;;6.10;59.27
59063;BME280;44851;45.648;9.004;2023-04-08T04:13:26;98978.72;;;6.19;58.92
59063;BME280;44851;45.648;9.004;2023-04-08T04:15:52;98985.53;;;6.20;58.71
59063;BME280;44851;45.648;9.004;2023-04-08T04:18:17;98983.88;;;6.19;59.08
59063;BME280;44851;45.648;9.004;2023-04-08T04:20:43;98985.81;;;6.04;59.24
59063;BME280;44851;45.648;9.004;2023-04-08T04:23:08;98986.03;;;6.01;59.19
59063;BME280;44851;45.648;9.004;2023-04-08T04:25:34;98989.72;;;6.09;59.43
59063;BME280;44851;45.648;9.004;2023-04-08T04:28:03;98988.06;;;6.08;58.49
59063;BME280;44851;45.648;9.004;2023-04-08T04:30:28;98994.56;;;6.14;58.99
59063;BME280;44851;45.648;9.004;2023-04-08T04:32:54;98989.47;;;6.12;58.24
59063;BME280;44851;45.648;9.004;2023-04-08T04:35:20;98985.81;;;6.04;58.09
59063;BME280;44851;45.648;9.004;2023-04-08T04:37:45;98992.03;;;6.01;58.70
59063;BME280;44851;45.648;9.004;2023-04-08T04:40:11;98990.94;;;5.93;58.21
59063;BME280;44851;45.648;9.004;2023-04-08T04:42:37;98997.06;;;5.92;58.86
59063;BME280;44851;45.648;9.004;2023-04-08T04:45:05;98999.28;;;5.96;58.76
59063;BME280;44851;45.648;9.004;2023-04-08T04:47:37;99001.59;;;5.88;58.51
59063;BME280;44851;45.648;9.004;2023-04-08T04:50:03;98996.59;;;5.85;59.10
59063;BME280;44851;45.648;9.004;2023-04-08T04:52:28;98992.94;;;5.76;58.83
59063;BME280;44851;45.648;9.004;2023-04-08T04:54:55;98997.28;;;5.76;58.86
59063;BME280;44851;45.648;9.004;2023-04-08T04:57:21;98990.84;;;5.81;59.08
59063;BME280;44851;45.648;9.004;2023-04-08T04:59:46;98988.16;;;5.83;58.39
59063;BME280;44851;45.648;9.004;2023-04-08T05:02:11;98990.38;;;6.00;59.04
59063;BME280;44851;45.648;9.004;2023-04-08T05:04:37;98984.91;;;6.16;58.44
59063;BME280;44851;45.648;9.004;2023-04-08T05:07:02;98985.81;;;6.04;58.55
59063;BME280;44851;45.648;9.004;2023-04-08T05:09:28;98988.72;;;5.99;58.76
59063;BME280;44851;45.648;9.004;2023-04-08T05:11:54;98990.63;;;5.97;58.10
59063;BME280;44851;45.648;9.004;2023-04-08T05:14:37;98991.88;;;5.92;58.82
59063;BME280;44851;45.648;9.004;2023-04-08T05:17:10;98996.03;;;5.81;58.50
59063;BME280;44851;45.648;9.004;2023-04-08T05:19:35;98995.16;;;5.81;58.36
59063;BME280;44851;45.648;9.004;2023-04-08T05:22:01;98996.59;;;5.85;58.36
59063;BME280;44851;45.648;9.004;2023-04-08T05:24:26;98995.16;;;5.81;58.08
59063;BME280;44851;45.648;9.004;2023-04-08T05:26:51;98995.06;;;5.95;58.43
59063;BME280;44851;45.648;9.004;2023-04-08T05:29:17;98999.72;;;5.90;58.31
59063;BME280;44851;45.648;9.004;2023-04-08T05:31:43;98991.94;;;6.03;58.58
59063;BME280;44851;45.648;9.004;2023-04-08T05:34:09;98999.25;;;6.09;58.97
59063;BME280;44851;45.648;9.004;2023-04-08T05:36:38;98995.50;;;6.13;58.67
59063;BME280;44851;45.648;9.004;2023-04-08T05:39:03;99002.91;;;6.18;58.90
59063;BME280;44851;45.648;9.004;2023-04-08T05:41:29;98998.34;;;6.21;58.90
59063;BME280;44851;45.648;9.004;2023-04-08T05:43:54;98996.84;;;6.30;58.76
59063;BME280;44851;45.648;9.004;2023-04-08T05:46:27;99007.41;;;6.27;59.30
59063;BME280;44851;45.648;9.004;2023-04-08T05:48:52;99004.13;;;6.25;59.43
59063;BME280;44851;45.648;9.004;2023-04-08T05:51:17;99000.34;;;6.29;59.08
59063;BME280;44851;45.648;9.004;2023-04-08T05:53:46;98999.25;;;6.44;59.00
59063;BME280;44851;45.648;9.004;2023-04-08T05:56:11;99000.06;;;6.45;58.94
59063;BME280;44851;45.648;9.004;2023-04-08T05:58:37;99000.47;;;6.51;58.81
59063;BME280;44851;45.648;9.004;2023-04-08T06:01:02;99001.75;;;6.46;58.56
59063;BME280;44851;45.648;9.004;2023-04-08T06:03:29;99003.91;;;6.63;59.34
59063;BME280;44851;45.648;9.004;2023-04-08T06:05:55;99006.38;;;6.64;58.74
59063;BME280;44851;45.648;9.004;2023-04-08T06:08:20;99010.75;;;6.86;58.85
59063;BME280;44851;45.648;9.004;2023-04-08T06:10:51;99006.88;;;7.03;58.06
59063;BME280;44851;45.648;9.004;2023-04-08T06:13:17;99004.69;;;7.10;58.21
59063;BME280;44851;45.648;9.004;2023-04-08T06:15:44;99010.19;;;7.28;57.68
59063;BME280;44851;45.648;9.004;2023-04-08T06:18:10;99001.94;;;7.56;57.88
59063;BME280;44851;45.648;9.004;2023-04-08T06:20:35;99004.97;;;7.72;57.15
59063;BME280;44851;45.648;9.004;2023-04-08T06:23:00;99014.03;;;8.01;57.55
59063;BME280;44851;45.648;9.004;2023-04-08T06:25:26;99014.53;;;8.27;57.72
59063;BME280;44851;45.648;9.004;2023-04-08T06:27:54;99024.94;;;8.47;55.62
59063;BME280;44851;45.648;9.004;2023-04-08T06:30:19;99019.50;;;8.71;55.85
59063;BME280;44851;45.648;9.004;2023-04-08T06:32:46;99022.91;;;8.93;54.83
59063;BME280;44851;45.648;9.004;2023-04-08T06:35:12;99023.53;;;9.06;56.47
59063;BME280;44851;45.648;9.004;2023-04-08T06:37:45;99021.97;;;9.24;56.79
59063;BME280;44851;45.648;9.004;2023-04-08T06:40:10;99017.28;;;9.39;56.16
59063;BME280;44851;45.648;9.004;2023-04-08T06:42:36;99013.91;;;9.58;57.41
59063;BME280;44851;45.648;9.004;2023-04-08T06:45:03;99013.28;;;9.75;54.90
59063;BME280;44851;45.648;9.004;2023-04-08T06:47:46;99015.09;;;10.04;54.19
59063;BME280;44851;45.648;9.004;2023-04-08T06:50:12;99018.69;;;10.13;54.87
59063;BME280;44851;45.648;9.004;2023-04-08T06:52:37;99012.94;;;10.28;54.92
59063;BME280;44851;45.648;9.004;2023-04-08T06:55:03;99007.69;;;10.38;54.74
59063;BME280;44851;45.648;9.004;2023-04-08T06:57:28;99013.06;;;10.46;53.63
59063;BME280;44851;45.648;9.004;2023-04-08T06:59:54;99006.63;;;10.41;54.47
59063;BME280;44851;45.648;9.004;2023-04-08T07:02:26;99010.31;;;10.48;54.37
59063;BME280;44851;45.648;9.004;2023-04-08T07:04:52;99012.09;;;10.57;54.14
59063;BME280;44851;45.648;9.004;2023-04-08T07:07:17;99008.50;;;10.68;53.75
59063;BME280;44851;45.648;9.004;2023-04-08T07:09:43;99006.84;;;10.86;54.90
59063;BME280;44851;45.648;9.004;2023-04-08T07:12:11;99018.09;;;10.86;54.09
59063;BME280;44851;45.648;9.004;2023-04-08T07:14:45;99008.34;;;10.98;52.91
59063;BME280;44851;45.648;9.004;2023-04-08T07:17:10;99013.63;;;11.16;51.09
59063;BME280;44851;45.648;9.004;2023-04-08T07:19:36;99017.41;;;11.31;50.64
59063;BME280;44851;45.648;9.004;2023-04-08T07:22:01;99021.66;;;11.60;52.31
59063;BME280;44851;45.648;9.004;2023-04-08T07:24:27;99021.09;;;11.66;52.85
59063;BME280;44851;45.648;9.004;2023-04-08T07:26:52;99015.66;;;11.77;52.16
59063;BME280;44851;45.648;9.004;2023-04-08T07:29:19;99018.75;;;11.90;49.55
59063;BME280;44851;45.648;9.004;2023-04-08T07:31:44;99022.31;;;12.35;52.81
59063;BME280;44851;45.648;9.004;2023-04-08T07:34:10;99020.59;;;12.43;49.00
59063;BME280;44851;45.648;9.004;2023-04-08T07:36:36;99025.66;;;12.63;50.96
59063;BME280;44851;45.648;9.004;2023-04-08T07:39:02;99015.31;;;12.79;48.61
59063;BME280;44851;45.648;9.004;2023-04-08T07:41:28;99010.91;;;13.06;50.45
59063;BME280;44851;45.648;9.004;2023-04-08T07:43:53;99014.66;;;13.29;49.14
59063;BME280;44851;45.648;9.004;2023-04-08T07:46:19;99011.47;;;13.52;49.52
59063;BME280;44851;45.648;9.004;2023-04-08T07:48:45;99016.06;;;13.58;45.38
59063;BME280;44851;45.648;9.004;2023-04-08T07:51:10;99014.88;;;13.86;45.75
59063;BME280;44851;45.648;9.004;2023-04-08T07:53:36;99019.63;;;13.91;46.50
59063;BME280;44851;45.648;9.004;2023-04-08T07:56:01;99021.16;;;14.18;46.19
59063;BME280;44851;45.648;9.004;2023-04-08T07:58:30;99010.94;;;13.90;43.34
59063;BME280;44851;45.648;9.004;2023-04-08T08:00:56;99019.31;;;14.02;44.12
59063;BME280;44851;45.648;9.004;2023-04-08T08:03:22;99023.00;;;14.34;45.15
59063;BME280;44851;45.648;9.004;2023-04-08T08:05:48;99027.75;;;14.63;46.04
59063;BME280;44851;45.648;9.004;2023-04-08T08:08:13;99030.03;;;14.58;43.34
59063;BME280;44851;45.648;9.004;2023-04-08T08:10:39;99025.78;;;14.48;42.73
59063;BME280;44851;45.648;9.004;2023-04-08T08:13:05;99029.38;;;14.64;43.17
59063;BME280;44851;45.648;9.004;2023-04-08T08:15:32;99031.97;;;14.96;42.54
59063;BME280;44851;45.648;9.004;2023-04-08T08:17:57;99030.81;;;15.15;42.55
59063;BME280;44851;45.648;9.004;2023-04-08T08:20:23;99038.69;;;15.15;41.97
59063;BME280;44851;45.648;9.004;2023-04-08T08:22:48;99037.66;;;15.41;42.97
59063;BME280;44851;45.648;9.004;2023-04-08T08:25:15;99042.66;;;15.67;41.80
59063;BME280;44851;45.648;9.004;2023-04-08T08:27:40;99045.03;;;15.45;39.47
59063;BME280;44851;45.648;9.004;2023-04-08T08:30:07;99042.44;;;15.21;39.05
59063;BME280;44851;45.648;9.004;2023-04-08T08:32:33;99050.94;;;15.39;39.33
59063;BME280;44851;45.648;9.004;2023-04-08T08:34:59;99052.41;;;15.42;39.29
59063;BME280;44851;45.648;9.004;2023-04-08T08:37:24;99045.22;;;15.75;38.78
59063;BME280;44851;45.648;9.004;2023-04-08T08:39:49;99044.59;;;16.04;39.74
59063;BME280;44851;45.648;9.004;2023-04-08T08:42:22;99046.50;;;16.18;39.88
59063;BME280;44851;45.648;9.004;2023-04-08T08:44:51;99050.78;;;16.42;37.89
59063;BME280;44851;45.648;9.004;2023-04-08T08:47:17;99048.38;;;16.55;37.00
59063;BME280;44851;45.648;9.004;2023-04-08T08:49:43;99048.03;;;16.58;39.85
59063;BME280;44851;45.648;9.004;2023-04-08T08:52:08;99051.72;;;16.87;38.97
59063;BME280;44851;45.648;9.004;2023-04-08T08:54:34;99055.81;;;16.90;37.25
59063;BME280;44851;45.648;9.004;2023-04-08T08:57:01;99052.84;;;17.07;37.55
59063;BME280;44851;45.648;9.004;2023-04-08T08:59:26;99052.72;;;17.24;38.92
59063;BME280;44851;45.648;9.004;2023-04-08T09:01:52;99049.34;;;17.15;38.62
59063;BME280;44851;45.648;9.004;2023-04-08T09:04:20;99050.34;;;17.29;37.77
59063;BME280;44851;45.648;9.004;2023-04-08T09:06:49;99053.56;;;17.01;34.96
59063;BME280;44851;45.648;9.004;2023-04-08T09:09:18;99043.19;;;17.23;37.36
59063;BME280;44851;45.648;9.004;2023-04-08T09:11:45;99041.34;;;17.23;33.93
59063;BME280;44851;45.648;9.004;2023-04-08T09:16:47;99030.00;;;17.23;34.28
59063;BME280;44851;45.648;9.004;2023-04-08T09:19:13;99038.97;;;17.58;35.18
59063;BME280;44851;45.648;9.004;2023-04-08T09:21:39;99035.25;;;17.52;33.57
59063;BME280;44851;45.648;9.004;2023-04-08T09:24:08;99036.66;;;17.48;32.46
59063;BME280;44851;45.648;9.004;2023-04-08T09:26:35;99037.34;;;17.57;34.33
59063;BME280;44851;45.648;9.004;2023-04-08T09:29:07;99025.28;;;17.84;32.61
59063;BME280;44851;45.648;9.004;2023-04-08T09:31:35;99025.34;;;18.05;34.54
59063;BME280;44851;45.648;9.004;2023-04-08T09:34:12;99022.22;;;18.16;35.70
59063;BME280;44851;45.648;9.004;2023-04-08T09:36:39;99026.78;;;18.23;32.80
59063;BME280;44851;45.648;9.004;2023-04-08T09:39:05;99017.91;;;18.09;31.61
59063;BME280;44851;45.648;9.004;2023-04-08T09:41:35;99011.81;;;17.94;31.57
59063;BME280;44851;45.648;9.004;2023-04-08T09:44:03;99010.69;;;17.96;31.87
59063;BME280;44851;45.648;9.004;2023-04-08T09:49:25;99013.44;;;18.31;34.29
59063;BME280;44851;45.648;9.004;2023-04-08T09:52:10;99016.78;;;18.39;33.17
59063;BME280;44851;45.648;9.004;2023-04-08T09:54:53;99009.78;;;18.32;32.35
59063;BME280;44851;45.648;9.004;2023-04-08T10:00:18;99015.16;;;18.88;35.06
59063;BME280;44851;45.648;9.004;2023-04-08T10:02:59;99012.38;;;18.75;32.34
59063;BME280;44851;45.648;9.004;2023-04-08T10:05:27;99008.72;;;18.48;32.62
59063;BME280;44851;45.648;9.004;2023-04-08T10:07:57;99003.84;;;18.73;33.70
59063;BME280;44851;45.648;9.004;2023-04-08T10:10:23;99011.50;;;18.89;33.46
59063;BME280;44851;45.648;9.004;2023-04-08T10:12:50;99004.16;;;18.35;31.30
59063;BME280;44851;45.648;9.004;2023-04-08T10:15:25;99003.16;;;18.64;31.18
59063;BME280;44851;45.648;9.004;2023-04-08T10:17:55;99004.78;;;18.15;30.15
59063;BME280;44851;45.648;9.004;2023-04-08T10:20:44;99000.75;;;18.69;31.80
59063;BME280;44851;45.648;9.004;2023-04-08T10:23:15;99002.84;;;19.02;34.26
59063;BME280;44851;45.648;9.004;2023-04-08T10:25:42;99003.63;;;18.95;30.83
59063;BME280;44851;45.648;9.004;2023-04-08T10:33:09;98998.16;;;18.97;29.89
59063;BME280;44851;45.648;9.004;2023-04-08T10:35:35;98986.50;;;19.19;30.03
59063;BME280;44851;45.648;9.004;2023-04-08T10:38:02;98996.00;;;19.07;28.91
59063;BME280;44851;45.648;9.004;2023-04-08T10:40:28;98988.50;;;19.17;29.24
59063;BME280;44851;45.648;9.004;2023-04-08T10:42:54;98993.03;;;19.24;31.30
59063;BME280;44851;45.648;9.004;2023-04-08T10:45:20;98983.00;;;19.12;28.23
59063;BME280;44851;45.648;9.004;2023-04-08T10:47:46;98980.69;;;19.37;28.83
59063;BME280;44851;45.648;9.004;2023-04-08T10:50:16;98979.63;;;19.73;27.19
59063;BME280;44851;45.648;9.004;2023-04-08T10:52:52;98974.03;;;19.55;27.16
59063;BME280;44851;45.648;9.004;2023-04-08T10:55:25;98985.53;;;19.82;27.51
59063;BME280;44851;45.648;9.004;2023-04-08T10:57:51;98969.72;;;19.88;26.78
59063;BME280;44851;45.648;9.004;2023-04-08T11:00:19;98973.13;;;19.76;27.25
59063;BME280;44851;45.648;9.004;2023-04-08T11:03:06;98974.97;;;19.82;26.13
59063;BME280;44851;45.648;9.004;2023-04-08T11:05:32;98969.50;;;19.77;26.79
59063;BME280;44851;45.648;9.004;2023-04-08T11:07:58;98972.19;;;20.10;28.88
59063;BME280;44851;45.648;9.004;2023-04-08T11:10:25;98966.94;;;20.43;28.89
59063;BME280;44851;45.648;9.004;2023-04-08T11:12:52;98965.66;;;19.99;27.57
59063;BME280;44851;45.648;9.004;2023-04-08T11:15:18;98972.19;;;20.30;27.31
59063;BME280;44851;45.648;9.004;2023-04-08T11:17:46;98974.69;;;20.51;27.26
59063;BME280;44851;45.648;9.004;2023-04-08T11:20:12;98960.84;;;20.49;27.03
59063;BME280;44851;45.648;9.004;2023-04-08T11:22:38;98959.59;;;20.45;28.39
59063;BME280;44851;45.648;9.004;2023-04-08T11:25:04;98962.06;;;20.53;26.44
59063;BME280;44851;45.648;9.004;2023-04-08T11:27:32;98960.84;;;20.62;27.00
59063;BME280;44851;45.648;9.004;2023-04-08T11:29:58;98958.81;;;20.51;27.13
59063;BME280;44851;45.648;9.004;2023-04-08T11:32:24;98947.00;;;20.47;26.75
59063;BME280;44851;45.648;9.004;2023-04-08T11:34:52;98950.41;;;20.81;27.61
59063;BME280;44851;45.648;9.004;2023-04-08T11:37:17;98936.19;;;20.68;25.25
59063;BME280;44851;45.648;9.004;2023-04-08T11:39:43;98944.31;;;20.73;26.40
59063;BME280;44851;45.648;9.004;2023-04-08T11:42:09;98934.25;;;21.02;26.48
59063;BME280;44851;45.648;9.004;2023-04-08T11:44:50;98931.47;;;20.70;26.32
59063;BME280;44851;45.648;9.004;2023-04-08T11:47:15;98937.94;;;20.88;26.28
59063;BME280;44851;45.648;9.004;2023-04-08T11:49:45;98939.84;;;20.67;26.38
59063;BME280;44851;45.648;9.004;2023-04-08T11:52:11;98943.28;;;20.35;26.02
59063;BME280;44851;45.648;9.004;2023-04-08T11:54:40;98933.94;;;20.25;26.46
59063;BME280;44851;45.648;9.004;2023-04-08T11:57:06;98936.97;;;20.75;27.57
59063;BME280;44851;45.648;9.004;2023-04-08T11:59:34;98935.50;;;20.99;26.62
59063;BME280;44851;45.648;9.004;2023-04-08T12:02:01;98931.41;;;20.97;25.94
59063;BME280;44851;45.648;9.004;2023-04-08T12:04:26;98926.56;;;20.81;25.79
59063;BME280;44851;45.648;9.004;2023-04-08T12:06:52;98922.06;;;20.94;26.40
59063;BME280;44851;45.648;9.004;2023-04-08T12:09:17;98923.44;;;21.03;26.41
59063;BME280;44851;45.648;9.004;2023-04-08T12:11:43;98919.59;;;20.99;25.48
59063;BME280;44851;45.648;9.004;2023-04-08T12:14:08;98910.81;;;21.06;26.38
59063;BME280;44851;45.648;9.004;2023-04-08T12:16:34;98905.22;;;21.34;25.71
59063;BME280;44851;45.648;9.004;2023-04-08T12:19:00;98908.22;;;21.44;26.03
59063;BME280;44851;45.648;9.004;2023-04-08T12:21:25;98902.97;;;21.37;26.11
59063;BME280;44851;45.648;9.004;2023-04-08T12:23:52;98905.44;;;21.70;27.29
59063;BME280;44851;45.648;9.004;2023-04-08T12:26:17;98908.66;;;21.72;26.58
59063;BME280;44851;45.648;9.004;2023-04-08T12:28:44;98900.78;;;21.97;26.39
59063;BME280;44851;45.648;9.004;2023-04-08T12:31:10;98893.94;;;21.76;26.13
59063;BME280;44851;45.648;9.004;2023-04-08T12:33:35;98892.00;;;21.65;26.12
59063;BME280;44851;45.648;9.004;2023-04-08T12:36:01;98900.50;;;21.74;26.29
59063;BME280;44851;45.648;9.004;2023-04-08T12:38:26;98897.34;;;21.84;26.35
59063;BME280;44851;45.648;9.004;2023-04-08T12:40:52;98886.81;;;21.77;26.29
59063;BME280;44851;45.648;9.004;2023-04-08T12:43:18;98882.59;;;21.69;25.95
59063;BME280;44851;45.648;9.004;2023-04-08T12:45:43;98883.59;;;21.37;26.02
59063;BME280;44851;45.648;9.004;2023-04-08T12:48:09;98882.59;;;21.69;26.83
59063;BME280;44851;45.648;9.004;2023-04-08T12:50:34;98884.34;;;21.44;25.27
59063;BME280;44851;45.648;9.004;2023-04-08T12:53:00;98890.00;;;21.54;25.62
59063;BME280;44851;45.648;9.004;2023-04-08T12:55:25;98892.38;;;21.69;25.12
59063;BME280;44851;45.648;9.004;2023-04-08T12:57:51;98892.56;;;21.67;26.99
59063;BME280;44851;45.648;9.004;2023-04-08T13:00:17;98891.00;;;21.21;25.44
59063;BME280;44851;45.648;9.004;2023-04-08T13:02:43;98886.22;;;21.75;27.04
59063;BME280;44851;45.648;9.004;2023-04-08T13:05:09;98882.19;;;21.66;25.88
59063;BME280;44851;45.648;9.004;2023-04-08T13:07:35;98873.41;;;21.65;25.60
59063;BME280;44851;45.648;9.004;2023-04-08T13:10:01;98879.66;;;21.77;24.76
59063;BME280;44851;45.648;9.004;2023-04-08T13:12:27;98876.81;;;21.72;25.25
59063;BME280;44851;45.648;9.004;2023-04-08T13:14:53;98878.63;;;21.78;25.32
59063;BME280;44851;45.648;9.004;2023-04-08T13:17:19;98874.34;;;21.77;25.01
59063;BME280;44851;45.648;9.004;2023-04-08T13:19:45;98871.66;;;21.91;25.81
59063;BME280;44851;45.648;9.004;2023-04-08T13:22:11;98865.34;;;21.85;25.03
59063;BME280;44851;45.648;9.004;2023-04-08T13:24:38;98862.13;;;21.76;25.14